createdAt,value
2019-06-10T00:00:25.125Z,2.60
2019-06-10T00:02:55.661Z,2.80
2019-06-10T00:05:26.228Z,3.00
2019-06-10T00:07:57.775Z,3.10
2019-06-10T00:10:28.467Z,2.90
2019-06-10T00:13:02.129Z,2.80
2019-06-10T00:15:31.488Z,2.70
2019-06-10T00:18:26.482Z,2.70
2019-06-10T00:20:34.350Z,2.72
2019-06-10T00:23:05.654Z,2.98
2019-06-10T00:25:37.242Z,2.85
2019-06-10T00:28:08.858Z,2.80
2019-06-10T00:30:41.148Z,2.40
2019-06-10T00:33:12.729Z,2.80
2019-06-10T00:35:43.386Z,3.10
2019-06-10T00:38:14.577Z,2.80
2019-06-10T00:40:45.149Z,2.72
2019-06-10T00:43:15.716Z,2.80
2019-06-10T00:45:46.286Z,3.27
2019-06-10T00:48:25.086Z,2.60
2019-06-10T00:50:51.621Z,2.70
2019-06-10T00:53:21.774Z,2.70
2019-06-10T00:55:52.417Z,2.67
2019-06-10T00:58:22.879Z,2.50
2019-06-10T01:00:53.486Z,2.60
2019-06-10T01:03:24.020Z,3.00
2019-06-10T01:05:54.563Z,2.35
2019-06-10T01:08:25.085Z,2.30
2019-06-10T01:10:55.597Z,2.30
2019-06-10T01:13:26.179Z,2.80
2019-06-10T01:15:56.718Z,2.77
2019-06-10T01:18:35.679Z,2.70
2019-06-10T01:21:01.790Z,2.40
2019-06-10T01:23:31.773Z,2.70
2019-06-10T01:26:02.362Z,2.35
2019-06-10T01:28:32.774Z,2.33
2019-06-10T01:31:03.488Z,2.80
2019-06-10T01:33:34.067Z,2.80
2019-06-10T01:36:05.511Z,2.60
2019-06-10T01:38:36.311Z,2.40
2019-06-10T01:41:08.058Z,2.90
2019-06-10T01:43:40.755Z,2.80
2019-06-10T01:46:14.084Z,2.60
2019-06-10T01:48:47.927Z,2.42
2019-06-10T01:51:21.421Z,2.80
2019-06-10T01:53:51.841Z,2.37
2019-06-10T01:56:22.394Z,2.73
2019-06-10T01:58:52.933Z,3.12
2019-06-10T02:01:38.531Z,2.60
2019-06-10T02:04:11.585Z,2.50
2019-06-10T02:06:41.605Z,2.22
2019-06-10T02:09:15.072Z,2.77
2019-06-10T02:11:44.438Z,2.70
2019-06-10T02:14:17.604Z,2.33
2019-06-10T02:16:47.169Z,3.15
2019-06-10T02:19:18.694Z,3.00
2019-06-10T02:21:51.052Z,2.70
2019-06-10T02:24:23.314Z,2.60
2019-06-10T02:26:53.830Z,2.60
2019-06-10T02:29:24.341Z,2.80
2019-06-10T02:31:54.815Z,3.00
2019-06-10T02:34:27.467Z,2.70
2019-06-10T02:36:57.634Z,2.92
2019-06-10T02:39:35.040Z,2.90
2019-06-10T02:42:05.622Z,3.20
2019-06-10T02:44:37.512Z,2.75
2019-06-10T02:47:08.496Z,2.98
2019-06-10T02:49:52.837Z,2.98
2019-06-10T02:52:24.650Z,2.87
2019-06-10T02:54:53.742Z,2.80
2019-06-10T02:57:30.541Z,2.90
2019-06-10T02:59:56.627Z,2.80
2019-06-10T03:02:31.542Z,2.87
2019-06-10T03:04:59.360Z,2.70
2019-06-10T03:07:32.603Z,3.25
2019-06-10T03:10:04.611Z,2.95
2019-06-10T03:12:34.564Z,2.67
2019-06-10T03:15:05.773Z,2.60
2019-06-10T03:17:36.293Z,2.80
2019-06-10T03:20:07.027Z,2.85
2019-06-10T03:22:37.514Z,2.83
2019-06-10T03:25:08.086Z,3.20
2019-06-10T03:27:38.648Z,2.72
2019-06-10T03:30:16.935Z,3.60
2019-06-10T03:32:46.827Z,3.10
2019-06-10T03:35:14.234Z,3.60
2019-06-10T03:37:44.740Z,3.30
2019-06-10T03:40:16.468Z,3.40
2019-06-10T03:42:47.488Z,3.22
2019-06-10T03:45:19.540Z,3.40
2019-06-10T03:47:50.059Z,3.30
2019-06-10T03:50:23.942Z,3.60
2019-06-10T03:52:52.959Z,3.80
2019-06-10T03:55:26.325Z,3.60
2019-06-10T03:57:55.812Z,3.90
2019-06-10T04:00:27.599Z,3.45
2019-06-10T04:02:58.762Z,3.65
2019-06-10T04:05:29.298Z,3.65
2019-06-10T04:08:02.010Z,3.70
2019-06-10T04:10:32.459Z,3.87
2019-06-10T04:13:03.056Z,4.20
2019-06-10T04:15:33.573Z,3.70
2019-06-10T04:18:04.190Z,4.00
2019-06-10T04:20:34.750Z,4.10
2019-06-10T04:23:05.361Z,4.55
2019-06-10T04:25:39.834Z,4.30
2019-06-10T04:28:12.367Z,4.08
2019-06-10T04:30:43.283Z,4.20
2019-06-10T04:33:14.011Z,4.35
2019-06-10T04:35:44.491Z,4.97
2019-06-10T04:38:14.949Z,4.10
2019-06-10T04:40:45.546Z,4.80
2019-06-10T04:43:15.992Z,4.20
2019-06-10T04:45:46.453Z,4.50
2019-06-10T04:48:16.973Z,4.90
2019-06-10T04:50:47.480Z,4.05
2019-06-10T04:53:18.698Z,4.30
2019-06-10T04:55:49.243Z,4.33
2019-06-10T04:58:21.506Z,4.30
2019-06-10T05:00:52.330Z,4.25
2019-06-10T05:03:23.826Z,5.03
2019-06-10T05:05:55.199Z,4.60
2019-06-10T05:08:26.889Z,4.50
2019-06-10T05:10:57.939Z,4.90
2019-06-10T05:13:29.893Z,4.50
2019-06-10T05:16:03.323Z,4.40
2019-06-10T05:18:33.204Z,3.98
2019-06-10T05:21:04.067Z,4.40
2019-06-10T05:23:34.540Z,4.42
2019-06-10T05:26:05.038Z,4.50
2019-06-10T05:28:35.526Z,4.15
2019-06-10T05:31:06.016Z,4.10
2019-06-10T05:33:36.558Z,4.80
2019-06-10T05:36:07.035Z,4.30
2019-06-10T05:38:37.578Z,4.75
2019-06-10T05:41:08.072Z,4.40
2019-06-10T05:43:38.642Z,5.40
2019-06-10T05:46:09.135Z,5.22
2019-06-10T05:48:39.680Z,5.30
2019-06-10T05:51:12.226Z,4.85
2019-06-10T05:53:45.763Z,5.22
2019-06-10T05:56:14.668Z,5.33
2019-06-10T05:58:45.074Z,5.20
2019-06-10T06:01:15.576Z,5.80
2019-06-10T06:03:46.082Z,5.80
2019-06-10T06:06:16.590Z,5.45
2019-06-10T06:08:47.174Z,5.33
2019-06-10T06:11:17.639Z,5.72
2019-06-10T06:13:48.121Z,5.72
2019-06-10T06:16:18.592Z,5.95
2019-06-10T06:18:49.072Z,5.33
2019-06-10T06:21:26.719Z,5.83
2019-06-10T06:23:52.862Z,6.20
2019-06-10T06:26:23.978Z,6.23
2019-06-10T06:28:54.637Z,6.25
2019-06-10T06:31:26.161Z,5.75
2019-06-10T06:33:56.930Z,5.97
2019-06-10T06:36:28.582Z,5.20
2019-06-10T06:38:59.310Z,5.90
2019-06-10T06:41:29.843Z,6.10
2019-06-10T06:44:02.335Z,5.75
2019-06-10T06:46:36.603Z,6.10
2019-06-10T06:49:04.917Z,6.25
2019-06-10T06:51:47.562Z,5.50
2019-06-10T06:54:07.717Z,5.78
2019-06-10T06:56:39.270Z,5.67
2019-06-10T06:59:12.966Z,5.40
2019-06-10T07:01:44.225Z,5.87
2019-06-10T07:04:14.936Z,5.50
2019-06-10T07:06:45.450Z,5.22
2019-06-10T07:09:17.448Z,4.95
2019-06-10T07:11:49.618Z,5.60
2019-06-10T07:14:23.759Z,5.28
2019-06-10T07:16:53.591Z,5.70
2019-06-10T07:19:24.083Z,5.28
2019-06-10T07:22:08.320Z,5.00
2019-06-10T07:24:26.846Z,4.67
2019-06-10T07:26:57.352Z,4.53
2019-06-10T07:29:27.851Z,5.15
2019-06-10T07:31:58.322Z,4.50
2019-06-10T07:34:33.890Z,4.50
2019-06-10T07:37:03.111Z,4.40
2019-06-10T07:39:35.237Z,4.22
2019-06-10T07:42:05.796Z,4.45
2019-06-10T07:44:37.537Z,4.20
2019-06-10T07:47:08.060Z,4.80
2019-06-10T07:49:39.279Z,4.90
2019-06-10T07:52:16.538Z,4.33
2019-06-10T07:54:44.024Z,4.70
2019-06-10T07:57:14.433Z,4.30
2019-06-10T07:59:45.983Z,4.45
2019-06-10T08:02:16.704Z,4.60
2019-06-10T08:04:47.210Z,4.80
2019-06-10T08:07:17.701Z,3.92
2019-06-10T08:09:48.251Z,3.58
2019-06-10T08:12:18.785Z,3.70
2019-06-10T08:14:49.282Z,4.00
2019-06-10T08:17:22.258Z,3.80
2019-06-10T08:19:54.250Z,3.92
2019-06-10T08:22:37.222Z,3.60
2019-06-10T08:24:56.429Z,3.72
2019-06-10T08:27:26.948Z,3.95
2019-06-10T08:30:14.344Z,3.90
2019-06-10T08:32:29.699Z,4.12
2019-06-10T08:35:02.612Z,3.77
2019-06-10T08:37:33.183Z,3.90
2019-06-10T08:40:05.873Z,3.93
2019-06-10T08:42:36.562Z,4.17
2019-06-10T08:45:07.487Z,3.85
2019-06-10T08:47:39.113Z,3.70
2019-06-10T08:50:09.825Z,3.90
2019-06-10T08:52:56.046Z,3.58
2019-06-10T08:55:12.855Z,3.50
2019-06-10T08:57:47.055Z,3.58
2019-06-10T09:00:18.579Z,3.87
2019-06-10T09:02:50.797Z,3.05
2019-06-10T09:05:23.250Z,3.30
2019-06-10T09:07:54.597Z,3.30
2019-06-10T09:10:25.185Z,3.47
2019-06-10T09:12:55.704Z,3.87
2019-06-10T09:15:27.008Z,3.80
2019-06-10T09:17:57.541Z,3.80
2019-06-10T09:20:28.532Z,3.70
2019-06-10T09:23:15.158Z,3.80
2019-06-10T09:25:33.344Z,3.55
2019-06-10T09:28:03.523Z,3.42
2019-06-10T09:30:34.005Z,3.60
2019-06-10T09:33:04.926Z,3.90
2019-06-10T09:35:35.526Z,3.80
2019-06-10T09:38:06.008Z,3.50
2019-06-10T09:41:00.299Z,3.50
2019-06-10T09:43:24.922Z,3.25
2019-06-10T09:45:56.640Z,3.33
2019-06-10T09:48:27.412Z,2.90
2019-06-10T09:50:59.250Z,3.42
2019-06-10T09:53:38.909Z,3.40
2019-06-10T09:56:04.145Z,4.00
2019-06-10T09:58:34.473Z,3.40
2019-06-10T10:01:05.337Z,3.40
2019-06-10T10:03:35.837Z,3.60
2019-06-10T10:06:14.521Z,3.55
2019-06-10T10:08:39.236Z,3.30
2019-06-10T10:11:12.354Z,3.40
2019-06-10T10:13:45.262Z,3.60
2019-06-10T10:16:14.349Z,4.22
2019-06-10T10:18:48.939Z,3.60
2019-06-10T10:21:17.232Z,3.47
2019-06-10T10:24:00.580Z,3.60
2019-06-10T10:26:20.746Z,3.40
2019-06-10T10:28:53.263Z,3.20
2019-06-10T10:31:24.118Z,3.22
2019-06-10T10:33:54.766Z,3.37
2019-06-10T10:36:25.301Z,3.00
2019-06-10T10:38:55.826Z,3.20
2019-06-10T10:41:26.311Z,3.47
2019-06-10T10:43:58.477Z,3.30
2019-06-10T10:46:29.135Z,3.60
2019-06-10T10:48:59.632Z,2.90
2019-06-10T10:51:32.522Z,3.50
2019-06-10T10:54:20.869Z,3.40
2019-06-10T10:56:34.870Z,3.45
2019-06-10T10:59:05.473Z,4.28
2019-06-10T11:01:36.028Z,3.67
2019-06-10T11:04:07.012Z,3.70
2019-06-10T11:06:37.500Z,3.27
2019-06-10T11:09:13.007Z,3.50
2019-06-10T11:11:44.541Z,3.62
2019-06-10T11:14:16.539Z,3.40
2019-06-10T11:16:47.206Z,3.90
2019-06-10T11:19:17.726Z,3.27
2019-06-10T11:21:49.477Z,3.30
2019-06-10T11:24:33.631Z,3.45
2019-06-10T11:26:55.167Z,3.80
2019-06-10T11:29:24.690Z,3.50
2019-06-10T11:31:57.397Z,3.45
2019-06-10T11:34:27.395Z,3.65
2019-06-10T11:36:58.342Z,3.70
2019-06-10T11:39:29.028Z,3.40
2019-06-10T11:42:02.224Z,3.50
2019-06-10T11:44:33.863Z,3.72
2019-06-10T11:47:04.550Z,4.22
2019-06-10T11:49:35.027Z,3.70
2019-06-10T11:52:05.557Z,3.70
2019-06-10T11:54:50.623Z,3.85
2019-06-10T11:57:08.447Z,3.60
2019-06-10T11:59:38.974Z,4.28
2019-06-10T12:02:09.534Z,4.33
2019-06-10T12:04:40.100Z,4.17
2019-06-10T12:07:12.739Z,4.40
2019-06-10T12:09:42.835Z,4.55
2019-06-10T12:12:13.615Z,3.80
2019-06-10T12:14:44.666Z,4.30
2019-06-10T12:17:30.789Z,4.33
2019-06-10T12:19:47.378Z,3.90
2019-06-10T12:22:17.856Z,3.87
2019-06-10T12:24:50.222Z,3.80
2019-06-10T12:27:20.578Z,3.17
2019-06-10T12:29:54.082Z,3.70
2019-06-10T12:32:23.408Z,3.17
2019-06-10T12:34:54.577Z,3.10
2019-06-10T12:37:26.102Z,3.30
2019-06-10T12:39:59.376Z,4.03
2019-06-10T12:42:28.757Z,3.33
2019-06-10T12:45:00.684Z,3.40
2019-06-10T12:47:33.238Z,3.57
2019-06-10T12:50:05.389Z,3.63
2019-06-10T12:52:36.082Z,3.40
2019-06-10T12:55:07.492Z,3.67
2019-06-10T12:57:38.011Z,3.20
2019-06-10T13:00:20.562Z,3.47
2019-06-10T13:02:43.123Z,3.30
2019-06-10T13:05:14.146Z,3.20
2019-06-10T13:07:47.717Z,2.90
2019-06-10T13:10:37.832Z,3.10
2019-06-10T13:13:09.339Z,3.50
